Terminal Aerodrome Forecast
Issued by NWS

Home | Current Version | Previous Version | Text Only | Print | Product List | Glossary On
Versions: 1 2 3 4 5 6 7 8 9 10 11 12 13 14 15 16 17
943
FTUS44 KLIX 260520
TAFMCB
TAF
KMCB 260520Z 2606/2706 17007KT P6SM SKC
     FM261100 16005KT 5SM BR BKN010
     FM261400 17009KT P6SM BKN015
     FM261700 18012KT P6SM BKN040
     FM270000 18013KT P6SM BKN025
     FM270400 21008KT 4SM SHRA VCTS BKN015CB=

USA.gov is the U.S. government's official web portal to all federal, state and local government web resources and services.